sensor_id;sensor_type;location;lat;lon;timestamp;P1;durP1;ratioP1;P2;durP2;ratioP2
74793;SDS011;63320;50.768;6.724;2023-04-07T00:00:57;8.57;;;5.03;;
74793;SDS011;63320;50.768;6.724;2023-04-07T00:03:23;10.73;;;4.95;;
74793;SDS011;63320;50.768;6.724;2023-04-07T00:05:48;9.70;;;5.75;;
74793;SDS011;63320;50.768;6.724;2023-04-07T00:08:13;8.60;;;4.65;;
74793;SDS011;63320;50.768;6.724;2023-04-07T00:10:39;11.68;;;5.50;;
74793;SDS011;63320;50.768;6.724;2023-04-07T00:13:04;9.30;;;5.15;;
74793;SDS011;63320;50.768;6.724;2023-04-07T00:15:30;9.00;;;4.60;;
74793;SDS011;63320;50.768;6.724;2023-04-07T00:17:56;9.52;;;4.75;;
74793;SDS011;63320;50.768;6.724;2023-04-07T00:20:22;8.32;;;5.32;;
74793;SDS011;63320;50.768;6.724;2023-04-07T00:22:47;9.88;;;4.70;;
74793;SDS011;63320;50.768;6.724;2023-04-07T00:25:13;8.77;;;5.43;;
74793;SDS011;63320;50.768;6.724;2023-04-07T00:27:38;9.63;;;5.30;;
74793;SDS011;63320;50.768;6.724;2023-04-07T00:30:04;10.02;;;6.20;;
74793;SDS011;63320;50.768;6.724;2023-04-07T00:32:30;11.48;;;6.00;;
74793;SDS011;63320;50.768;6.724;2023-04-07T00:34:57;12.82;;;6.60;;
74793;SDS011;63320;50.768;6.724;2023-04-07T00:37:22;13.68;;;7.78;;
74793;SDS011;63320;50.768;6.724;2023-04-07T00:39:47;15.75;;;8.18;;
74793;SDS011;63320;50.768;6.724;2023-04-07T00:42:13;15.32;;;7.88;;
74793;SDS011;63320;50.768;6.724;2023-04-07T00:44:38;14.52;;;8.73;;
74793;SDS011;63320;50.768;6.724;2023-04-07T00:47:03;15.38;;;9.23;;
74793;SDS011;63320;50.768;6.724;2023-04-07T00:49:29;20.17;;;10.32;;
74793;SDS011;63320;50.768;6.724;2023-04-07T00:51:56;15.98;;;9.93;;
74793;SDS011;63320;50.768;6.724;2023-04-07T00:54:22;19.73;;;11.05;;
74793;SDS011;63320;50.768;6.724;2023-04-07T00:56:48;19.50;;;11.75;;
74793;SDS011;63320;50.768;6.724;2023-04-07T00:59:13;19.25;;;11.95;;
74793;SDS011;63320;50.768;6.724;2023-04-07T01:01:41;19.23;;;11.85;;
74793;SDS011;63320;50.768;6.724;2023-04-07T01:04:16;19.23;;;12.20;;
74793;SDS011;63320;50.768;6.724;2023-04-07T01:06:47;19.70;;;12.05;;
74793;SDS011;63320;50.768;6.724;2023-04-07T01:09:19;21.80;;;12.68;;
74793;SDS011;63320;50.768;6.724;2023-04-07T01:11:47;25.48;;;14.10;;
74793;SDS011;63320;50.768;6.724;2023-04-07T01:14:20;21.40;;;13.60;;
74793;SDS011;63320;50.768;6.724;2023-04-07T01:16:48;22.75;;;14.00;;
74793;SDS011;63320;50.768;6.724;2023-04-07T01:19:15;26.40;;;15.45;;
74793;SDS011;63320;50.768;6.724;2023-04-07T01:21:56;24.27;;;14.77;;
74793;SDS011;63320;50.768;6.724;2023-04-07T01:24:32;24.00;;;15.00;;
74793;SDS011;63320;50.768;6.724;2023-04-07T01:27:11;24.05;;;14.80;;
74793;SDS011;63320;50.768;6.724;2023-04-07T01:29:43;29.83;;;16.00;;
74793;SDS011;63320;50.768;6.724;2023-04-07T01:32:09;26.63;;;15.80;;
74793;SDS011;63320;50.768;6.724;2023-04-07T01:34:36;28.05;;;16.55;;
74793;SDS011;63320;50.768;6.724;2023-04-07T01:37:02;27.45;;;15.23;;
74793;SDS011;63320;50.768;6.724;2023-04-07T01:39:29;28.73;;;16.15;;
74793;SDS011;63320;50.768;6.724;2023-04-07T01:41:55;27.33;;;16.05;;
74793;SDS011;63320;50.768;6.724;2023-04-07T01:44:22;28.00;;;17.40;;
74793;SDS011;63320;50.768;6.724;2023-04-07T01:46:51;31.58;;;16.05;;
74793;SDS011;63320;50.768;6.724;2023-04-07T01:49:19;29.42;;;16.77;;
74793;SDS011;63320;50.768;6.724;2023-04-07T01:51:45;27.90;;;16.70;;
74793;SDS011;63320;50.768;6.724;2023-04-07T01:54:11;29.50;;;16.58;;
74793;SDS011;63320;50.768;6.724;2023-04-07T01:56:36;33.10;;;18.10;;
74793;SDS011;63320;50.768;6.724;2023-04-07T01:59:02;31.00;;;17.55;;
74793;SDS011;63320;50.768;6.724;2023-04-07T02:01:27;34.17;;;18.02;;
74793;SDS011;63320;50.768;6.724;2023-04-07T02:03:56;29.83;;;17.40;;
74793;SDS011;63320;50.768;6.724;2023-04-07T02:06:30;33.35;;;17.42;;
74793;SDS011;63320;50.768;6.724;2023-04-07T02:08:59;30.75;;;17.35;;
74793;SDS011;63320;50.768;6.724;2023-04-07T02:11:30;32.83;;;18.02;;
74793;SDS011;63320;50.768;6.724;2023-04-07T02:13:58;34.45;;;18.90;;
74793;SDS011;63320;50.768;6.724;2023-04-07T02:16:25;35.25;;;18.05;;
74793;SDS011;63320;50.768;6.724;2023-04-07T02:18:52;37.20;;;17.75;;
74793;SDS011;63320;50.768;6.724;2023-04-07T02:21:19;39.90;;;20.15;;
74793;SDS011;63320;50.768;6.724;2023-04-07T02:23:45;36.90;;;18.00;;
74793;SDS011;63320;50.768;6.724;2023-04-07T02:26:11;39.45;;;20.00;;
74793;SDS011;63320;50.768;6.724;2023-04-07T02:28:36;34.38;;;17.67;;
74793;SDS011;63320;50.768;6.724;2023-04-07T02:31:01;41.67;;;19.52;;
74793;SDS011;63320;50.768;6.724;2023-04-07T02:33:27;41.30;;;19.42;;
74793;SDS011;63320;50.768;6.724;2023-04-07T02:35:52;43.67;;;19.02;;
74793;SDS011;63320;50.768;6.724;2023-04-07T02:38:19;41.65;;;20.50;;
74793;SDS011;63320;50.768;6.724;2023-04-07T02:40:44;39.67;;;18.85;;
74793;SDS011;63320;50.768;6.724;2023-04-07T02:43:09;38.33;;;18.40;;
74793;SDS011;63320;50.768;6.724;2023-04-07T02:45:35;43.05;;;18.88;;
74793;SDS011;63320;50.768;6.724;2023-04-07T02:48:00;38.22;;;18.95;;
74793;SDS011;63320;50.768;6.724;2023-04-07T02:50:25;40.67;;;19.30;;
74793;SDS011;63320;50.768;6.724;2023-04-07T02:52:51;39.25;;;18.65;;
74793;SDS011;63320;50.768;6.724;2023-04-07T02:55:17;38.13;;;18.70;;
74793;SDS011;63320;50.768;6.724;2023-04-07T02:57:43;40.40;;;19.58;;
74793;SDS011;63320;50.768;6.724;2023-04-07T03:00:08;39.47;;;19.23;;
74793;SDS011;63320;50.768;6.724;2023-04-07T03:02:35;40.50;;;19.40;;
74793;SDS011;63320;50.768;6.724;2023-04-07T03:05:00;39.30;;;19.63;;
74793;SDS011;63320;50.768;6.724;2023-04-07T03:07:25;38.83;;;19.42;;
74793;SDS011;63320;50.768;6.724;2023-04-07T03:09:51;38.13;;;19.40;;
74793;SDS011;63320;50.768;6.724;2023-04-07T03:12:17;37.03;;;18.65;;
74793;SDS011;63320;50.768;6.724;2023-04-07T03:14:43;42.33;;;19.45;;
74793;SDS011;63320;50.768;6.724;2023-04-07T03:17:08;38.05;;;19.38;;
74793;SDS011;63320;50.768;6.724;2023-04-07T03:19:33;34.63;;;18.80;;
74793;SDS011;63320;50.768;6.724;2023-04-07T03:21:59;40.05;;;20.20;;
74793;SDS011;63320;50.768;6.724;2023-04-07T03:24:24;40.92;;;19.50;;
74793;SDS011;63320;50.768;6.724;2023-04-07T03:26:49;39.17;;;19.05;;
74793;SDS011;63320;50.768;6.724;2023-04-07T03:29:16;39.72;;;18.50;;
74793;SDS011;63320;50.768;6.724;2023-04-07T03:31:41;36.33;;;18.48;;
74793;SDS011;63320;50.768;6.724;2023-04-07T03:34:07;36.67;;;18.33;;
74793;SDS011;63320;50.768;6.724;2023-04-07T03:36:32;39.85;;;19.35;;
74793;SDS011;63320;50.768;6.724;2023-04-07T03:38:57;35.22;;;18.15;;
74793;SDS011;63320;50.768;6.724;2023-04-07T03:41:23;43.35;;;19.83;;
74793;SDS011;63320;50.768;6.724;2023-04-07T03:43:48;35.45;;;18.10;;
74793;SDS011;63320;50.768;6.724;2023-04-07T03:46:15;39.97;;;19.35;;
74793;SDS011;63320;50.768;6.724;2023-04-07T03:48:40;40.95;;;18.65;;
74793;SDS011;63320;50.768;6.724;2023-04-07T03:51:05;33.20;;;18.25;;
74793;SDS011;63320;50.768;6.724;2023-04-07T03:53:31;40.97;;;19.73;;
74793;SDS011;63320;50.768;6.724;2023-04-07T03:55:56;41.40;;;20.00;;
74793;SDS011;63320;50.768;6.724;2023-04-07T03:58:22;39.80;;;19.58;;
74793;SDS011;63320;50.768;6.724;2023-04-07T04:00:47;41.20;;;19.15;;
74793;SDS011;63320;50.768;6.724;2023-04-07T04:03:14;36.13;;;18.27;;
74793;SDS011;63320;50.768;6.724;2023-04-07T04:05:39;36.85;;;19.95;;
74793;SDS011;63320;50.768;6.724;2023-04-07T04:08:05;37.88;;;20.27;;
74793;SDS011;63320;50.768;6.724;2023-04-07T04:10:31;46.50;;;22.08;;
74793;SDS011;63320;50.768;6.724;2023-04-07T04:12:56;37.08;;;19.45;;
74793;SDS011;63320;50.768;6.724;2023-04-07T04:15:21;38.70;;;20.13;;
74793;SDS011;63320;50.768;6.724;2023-04-07T04:17:47;38.55;;;20.73;;
74793;SDS011;63320;50.768;6.724;2023-04-07T04:20:13;41.50;;;21.02;;
74793;SDS011;63320;50.768;6.724;2023-04-07T04:22:39;40.67;;;21.52;;
74793;SDS011;63320;50.768;6.724;2023-04-07T04:25:04;40.63;;;20.73;;
74793;SDS011;63320;50.768;6.724;2023-04-07T04:27:30;43.20;;;21.95;;
74793;SDS011;63320;50.768;6.724;2023-04-07T04:29:55;42.70;;;21.70;;
74793;SDS011;63320;50.768;6.724;2023-04-07T04:32:20;41.58;;;21.02;;
74793;SDS011;63320;50.768;6.724;2023-04-07T04:34:45;40.00;;;21.88;;
74793;SDS011;63320;50.768;6.724;2023-04-07T04:37:12;40.60;;;21.52;;
74793;SDS011;63320;50.768;6.724;2023-04-07T04:39:37;38.42;;;21.42;;
74793;SDS011;63320;50.768;6.724;2023-04-07T04:42:03;38.13;;;20.92;;
74793;SDS011;63320;50.768;6.724;2023-04-07T04:44:29;40.40;;;20.83;;
74793;SDS011;63320;50.768;6.724;2023-04-07T04:46:54;37.08;;;19.52;;
74793;SDS011;63320;50.768;6.724;2023-04-07T04:49:20;36.78;;;19.52;;
74793;SDS011;63320;50.768;6.724;2023-04-07T04:51:45;42.03;;;20.13;;
74793;SDS011;63320;50.768;6.724;2023-04-07T04:54:12;38.22;;;19.83;;
74793;SDS011;63320;50.768;6.724;2023-04-07T04:56:37;33.35;;;18.67;;
74793;SDS011;63320;50.768;6.724;2023-04-07T04:59:03;32.38;;;17.50;;
74793;SDS011;63320;50.768;6.724;2023-04-07T05:01:28;32.70;;;18.17;;
74793;SDS011;63320;50.768;6.724;2023-04-07T05:03:54;36.55;;;18.48;;
74793;SDS011;63320;50.768;6.724;2023-04-07T05:06:19;34.22;;;18.67;;
74793;SDS011;63320;50.768;6.724;2023-04-07T05:08:44;37.38;;;19.60;;
74793;SDS011;63320;50.768;6.724;2023-04-07T05:11:11;35.38;;;18.63;;
74793;SDS011;63320;50.768;6.724;2023-04-07T05:13:36;35.45;;;18.88;;
74793;SDS011;63320;50.768;6.724;2023-04-07T05:16:02;30.85;;;17.83;;
74793;SDS011;63320;50.768;6.724;2023-04-07T05:18:27;35.28;;;19.33;;
74793;SDS011;63320;50.768;6.724;2023-04-07T05:20:53;35.83;;;19.55;;
74793;SDS011;63320;50.768;6.724;2023-04-07T05:23:18;37.67;;;20.15;;
74793;SDS011;63320;50.768;6.724;2023-04-07T05:25:43;35.92;;;18.83;;
74793;SDS011;63320;50.768;6.724;2023-04-07T05:28:10;39.83;;;20.27;;
74793;SDS011;63320;50.768;6.724;2023-04-07T05:30:35;36.30;;;19.30;;
74793;SDS011;63320;50.768;6.724;2023-04-07T05:33:01;38.50;;;21.73;;
74793;SDS011;63320;50.768;6.724;2023-04-07T05:35:26;35.25;;;19.38;;
74793;SDS011;63320;50.768;6.724;2023-04-07T05:37:51;34.78;;;20.88;;
74793;SDS011;63320;50.768;6.724;2023-04-07T05:40:17;35.88;;;18.52;;
74793;SDS011;63320;50.768;6.724;2023-04-07T05:42:42;36.65;;;17.75;;
74793;SDS011;63320;50.768;6.724;2023-04-07T05:45:09;30.90;;;17.17;;
74793;SDS011;63320;50.768;6.724;2023-04-07T05:47:35;30.92;;;17.80;;
74793;SDS011;63320;50.768;6.724;2023-04-07T05:50:00;30.58;;;17.30;;
74793;SDS011;63320;50.768;6.724;2023-04-07T05:52:26;29.90;;;17.75;;
74793;SDS011;63320;50.768;6.724;2023-04-07T05:54:51;28.58;;;17.25;;
74793;SDS011;63320;50.768;6.724;2023-04-07T05:57:16;33.03;;;16.50;;
74793;SDS011;63320;50.768;6.724;2023-04-07T05:59:42;31.92;;;16.52;;
74793;SDS011;63320;50.768;6.724;2023-04-07T06:02:08;31.63;;;16.27;;
74793;SDS011;63320;50.768;6.724;2023-04-07T06:04:34;30.80;;;16.13;;
74793;SDS011;63320;50.768;6.724;2023-04-07T06:06:59;32.25;;;16.15;;
74793;SDS011;63320;50.768;6.724;2023-04-07T06:09:24;29.20;;;15.85;;
74793;SDS011;63320;50.768;6.724;2023-04-07T06:11:50;30.65;;;17.13;;
74793;SDS011;63320;50.768;6.724;2023-04-07T06:14:15;32.47;;;16.15;;
74793;SDS011;63320;50.768;6.724;2023-04-07T06:16:41;31.15;;;14.82;;
74793;SDS011;63320;50.768;6.724;2023-04-07T06:19:08;27.67;;;14.50;;
74793;SDS011;63320;50.768;6.724;2023-04-07T06:21:33;30.52;;;14.57;;
74793;SDS011;63320;50.768;6.724;2023-04-07T06:23:59;25.80;;;14.35;;
74793;SDS011;63320;50.768;6.724;2023-04-07T06:26:24;26.40;;;14.82;;
74793;SDS011;63320;50.768;6.724;2023-04-07T06:28:50;27.45;;;15.27;;
74793;SDS011;63320;50.768;6.724;2023-04-07T06:31:16;27.58;;;14.55;;
74793;SDS011;63320;50.768;6.724;2023-04-07T06:33:41;28.70;;;14.48;;
74793;SDS011;63320;50.768;6.724;2023-04-07T06:36:08;26.17;;;13.95;;
74793;SDS011;63320;50.768;6.724;2023-04-07T06:38:33;23.27;;;14.15;;
74793;SDS011;63320;50.768;6.724;2023-04-07T06:40:59;27.02;;;13.88;;
74793;SDS011;63320;50.768;6.724;2023-04-07T06:43:24;28.48;;;15.23;;
74793;SDS011;63320;50.768;6.724;2023-04-07T06:45:49;29.60;;;14.95;;
74793;SDS011;63320;50.768;6.724;2023-04-07T06:48:14;29.50;;;14.60;;
74793;SDS011;63320;50.768;6.724;2023-04-07T06:50:40;28.65;;;14.00;;
74793;SDS011;63320;50.768;6.724;2023-04-07T06:53:06;27.08;;;15.02;;
74793;SDS011;63320;50.768;6.724;2023-04-07T06:55:32;26.83;;;14.52;;
74793;SDS011;63320;50.768;6.724;2023-04-07T06:57:57;28.35;;;14.63;;
74793;SDS011;63320;50.768;6.724;2023-04-07T07:00:23;25.58;;;14.02;;
74793;SDS011;63320;50.768;6.724;2023-04-07T07:02:49;25.45;;;13.95;;
74793;SDS011;63320;50.768;6.724;2023-04-07T07:05:14;28.70;;;12.55;;
74793;SDS011;63320;50.768;6.724;2023-04-07T07:07:40;19.90;;;10.80;;
74793;SDS011;63320;50.768;6.724;2023-04-07T07:10:07;20.33;;;9.95;;
74793;SDS011;63320;50.768;6.724;2023-04-07T07:12:33;17.13;;;9.63;;
74793;SDS011;63320;50.768;6.724;2023-04-07T07:14:59;13.82;;;7.93;;
74793;SDS011;63320;50.768;6.724;2023-04-07T07:17:24;15.10;;;7.82;;
74793;SDS011;63320;50.768;6.724;2023-04-07T07:19:49;14.35;;;6.90;;
74793;SDS011;63320;50.768;6.724;2023-04-07T07:22:15;13.23;;;7.18;;
74793;SDS011;63320;50.768;6.724;2023-04-07T07:24:40;13.98;;;6.75;;
74793;SDS011;63320;50.768;6.724;2023-04-07T07:27:07;16.63;;;6.60;;
74793;SDS011;63320;50.768;6.724;2023-04-07T07:29:32;15.60;;;6.28;;
74793;SDS011;63320;50.768;6.724;2023-04-07T07:31:57;13.95;;;6.80;;
74793;SDS011;63320;50.768;6.724;2023-04-07T07:34:23;12.35;;;5.93;;
74793;SDS011;63320;50.768;6.724;2023-04-07T07:36:48;13.88;;;7.05;;
74793;SDS011;63320;50.768;6.724;2023-04-07T07:39:14;15.80;;;7.03;;
74793;SDS011;63320;50.768;6.724;2023-04-07T07:41:39;15.00;;;7.65;;
74793;SDS011;63320;50.768;6.724;2023-04-07T07:44:06;14.35;;;6.88;;
74793;SDS011;63320;50.768;6.724;2023-04-07T07:46:31;15.02;;;6.90;;
74793;SDS011;63320;50.768;6.724;2023-04-07T07:48:56;14.98;;;7.03;;
74793;SDS011;63320;50.768;6.724;2023-04-07T07:51:22;16.50;;;7.75;;
74793;SDS011;63320;50.768;6.724;2023-04-07T07:53:47;14.82;;;7.93;;
74793;SDS011;63320;50.768;6.724;2023-04-07T07:56:12;16.08;;;7.38;;
74793;SDS011;63320;50.768;6.724;2023-04-07T07:58:38;14.85;;;8.57;;
74793;SDS011;63320;50.768;6.724;2023-04-07T08:01:05;15.70;;;7.53;;
74793;SDS011;63320;50.768;6.724;2023-04-07T08:03:30;18.02;;;8.35;;
74793;SDS011;63320;50.768;6.724;2023-04-07T08:05:55;17.02;;;7.93;;
74793;SDS011;63320;50.768;6.724;2023-04-07T08:08:21;19.23;;;8.40;;
74793;SDS011;63320;50.768;6.724;2023-04-07T08:10:46;15.18;;;8.07;;
74793;SDS011;63320;50.768;6.724;2023-04-07T08:13:12;16.65;;;7.43;;
74793;SDS011;63320;50.768;6.724;2023-04-07T08:15:37;15.48;;;8.05;;
74793;SDS011;63320;50.768;6.724;2023-04-07T08:18:04;15.88;;;7.65;;
74793;SDS011;63320;50.768;6.724;2023-04-07T08:20:30;16.08;;;7.82;;
74793;SDS011;63320;50.768;6.724;2023-04-07T08:22:56;14.18;;;7.32;;
74793;SDS011;63320;50.768;6.724;2023-04-07T08:25:21;13.35;;;6.88;;
74793;SDS011;63320;50.768;6.724;2023-04-07T08:27:47;15.55;;;7.78;;
74793;SDS011;63320;50.768;6.724;2023-04-07T08:30:13;13.27;;;6.47;;
74793;SDS011;63320;50.768;6.724;2023-04-07T08:32:39;12.85;;;7.15;;
74793;SDS011;63320;50.768;6.724;2023-04-07T08:35:07;12.25;;;6.97;;
74793;SDS011;63320;50.768;6.724;2023-04-07T08:37:33;35.35;;;18.63;;
74793;SDS011;63320;50.768;6.724;2023-04-07T08:39:59;16.20;;;8.02;;
74793;SDS011;63320;50.768;6.724;2023-04-07T08:42:26;17.85;;;11.95;;
74793;SDS011;63320;50.768;6.724;2023-04-07T08:44:52;22.52;;;11.75;;
74793;SDS011;63320;50.768;6.724;2023-04-07T08:47:18;18.10;;;9.52;;
74793;SDS011;63320;50.768;6.724;2023-04-07T08:49:44;14.00;;;8.50;;
74793;SDS011;63320;50.768;6.724;2023-04-07T08:52:15;22.65;;;8.48;;
74793;SDS011;63320;50.768;6.724;2023-04-07T08:54:46;25.65;;;14.63;;
74793;SDS011;63320;50.768;6.724;2023-04-07T08:57:11;23.58;;;14.27;;
74793;SDS011;63320;50.768;6.724;2023-04-07T08:59:38;23.67;;;16.30;;
74793;SDS011;63320;50.768;6.724;2023-04-07T09:02:05;34.78;;;28.23;;
74793;SDS011;63320;50.768;6.724;2023-04-07T09:04:30;19.48;;;12.13;;
74793;SDS011;63320;50.768;6.724;2023-04-07T09:06:56;21.55;;;14.38;;
74793;SDS011;63320;50.768;6.724;2023-04-07T09:09:22;28.10;;;16.88;;
74793;SDS011;63320;50.768;6.724;2023-04-07T09:11:48;41.30;;;30.98;;
74793;SDS011;63320;50.768;6.724;2023-04-07T09:14:13;34.53;;;25.58;;
74793;SDS011;63320;50.768;6.724;2023-04-07T09:16:38;50.30;;;44.45;;
74793;SDS011;63320;50.768;6.724;2023-04-07T09:19:04;51.47;;;40.75;;
74793;SDS011;63320;50.768;6.724;2023-04-07T09:24:20;28.60;;;22.42;;
74793;SDS011;63320;50.768;6.724;2023-04-07T09:26:48;27.33;;;19.88;;
74793;SDS011;63320;50.768;6.724;2023-04-07T09:29:17;30.05;;;22.50;;
74793;SDS011;63320;50.768;6.724;2023-04-07T09:31:44;26.52;;;20.63;;
74793;SDS011;63320;50.768;6.724;2023-04-07T09:34:18;25.02;;;18.25;;
74793;SDS011;63320;50.768;6.724;2023-04-07T09:36:48;25.15;;;17.30;;
74793;SDS011;63320;50.768;6.724;2023-04-07T09:39:13;23.67;;;14.10;;
74793;SDS011;63320;50.768;6.724;2023-04-07T09:41:40;26.02;;;17.77;;
74793;SDS011;63320;50.768;6.724;2023-04-07T09:44:05;22.02;;;12.48;;
74793;SDS011;63320;50.768;6.724;2023-04-07T09:46:31;35.08;;;18.88;;
74793;SDS011;63320;50.768;6.724;2023-04-07T09:49:00;60.13;;;33.90;;
74793;SDS011;63320;50.768;6.724;2023-04-07T09:51:26;82.03;;;67.25;;
74793;SDS011;63320;50.768;6.724;2023-04-07T09:53:51;85.32;;;69.40;;
74793;SDS011;63320;50.768;6.724;2023-04-07T09:56:18;50.30;;;40.47;;
74793;SDS011;63320;50.768;6.724;2023-04-07T09:58:46;93.60;;;78.35;;
74793;SDS011;63320;50.768;6.724;2023-04-07T10:01:13;50.85;;;39.20;;
74793;SDS011;63320;50.768;6.724;2023-04-07T10:03:40;61.47;;;51.42;;
74793;SDS011;63320;50.768;6.724;2023-04-07T10:06:05;86.53;;;77.57;;
74793;SDS011;63320;50.768;6.724;2023-04-07T10:08:31;54.67;;;47.42;;
74793;SDS011;63320;50.768;6.724;2023-04-07T10:10:58;43.92;;;31.00;;
74793;SDS011;63320;50.768;6.724;2023-04-07T10:13:25;25.02;;;13.90;;
74793;SDS011;63320;50.768;6.724;2023-04-07T10:15:53;26.25;;;17.83;;
74793;SDS011;63320;50.768;6.724;2023-04-07T10:18:19;51.47;;;44.20;;
74793;SDS011;63320;50.768;6.724;2023-04-07T10:20:46;120.78;;;101.65;;
74793;SDS011;63320;50.768;6.724;2023-04-07T10:23:15;70.80;;;58.13;;
74793;SDS011;63320;50.768;6.724;2023-04-07T10:25:44;57.17;;;39.88;;
74793;SDS011;63320;50.768;6.724;2023-04-07T10:28:11;90.80;;;77.68;;
74793;SDS011;63320;50.768;6.724;2023-04-07T10:30:38;44.42;;;36.25;;
74793;SDS011;63320;50.768;6.724;2023-04-07T10:33:06;34.20;;;28.25;;
74793;SDS011;63320;50.768;6.724;2023-04-07T10:35:55;36.42;;;28.85;;
74793;SDS011;63320;50.768;6.724;2023-04-07T10:38:27;87.45;;;72.82;;
74793;SDS011;63320;50.768;6.724;2023-04-07T10:40:53;207.82;;;178.95;;
74793;SDS011;63320;50.768;6.724;2023-04-07T10:46:02;39.67;;;27.20;;
74793;SDS011;63320;50.768;6.724;2023-04-07T10:48:28;44.05;;;32.92;;
74793;SDS011;63320;50.768;6.724;2023-04-07T10:51:13;74.95;;;62.35;;
74793;SDS011;63320;50.768;6.724;2023-04-07T10:59:35;41.58;;;35.75;;
74793;SDS011;63320;50.768;6.724;2023-04-07T11:04:56;38.58;;;27.38;;
74793;SDS011;63320;50.768;6.724;2023-04-07T11:07:41;43.10;;;34.55;;
74793;SDS011;63320;50.768;6.724;2023-04-07T11:10:08;25.80;;;17.52;;
74793;SDS011;63320;50.768;6.724;2023-04-07T11:12:35;20.77;;;13.10;;
74793;SDS011;63320;50.768;6.724;2023-04-07T11:15:15;40.25;;;32.08;;
74793;SDS011;63320;50.768;6.724;2023-04-07T11:17:41;24.77;;;16.33;;
74793;SDS011;63320;50.768;6.724;2023-04-07T11:20:08;16.85;;;10.02;;
74793;SDS011;63320;50.768;6.724;2023-04-07T11:22:34;18.70;;;11.70;;
74793;SDS011;63320;50.768;6.724;2023-04-07T11:24:59;17.92;;;10.52;;
74793;SDS011;63320;50.768;6.724;2023-04-07T11:27:24;17.40;;;10.15;;
74793;SDS011;63320;50.768;6.724;2023-04-07T11:29:50;47.35;;;35.20;;
74793;SDS011;63320;50.768;6.724;2023-04-07T11:32:20;41.08;;;25.80;;
74793;SDS011;63320;50.768;6.724;2023-04-07T11:34:47;64.22;;;38.85;;
74793;SDS011;63320;50.768;6.724;2023-04-07T11:37:20;26.15;;;16.50;;
74793;SDS011;63320;50.768;6.724;2023-04-07T11:39:50;47.10;;;29.92;;
74793;SDS011;63320;50.768;6.724;2023-04-07T11:42:16;64.93;;;43.10;;
74793;SDS011;63320;50.768;6.724;2023-04-07T11:44:55;75.50;;;53.55;;
74793;SDS011;63320;50.768;6.724;2023-04-07T11:47:20;51.08;;;36.13;;
74793;SDS011;63320;50.768;6.724;2023-04-07T11:49:58;29.33;;;15.63;;
74793;SDS011;63320;50.768;6.724;2023-04-07T11:52:24;36.38;;;19.90;;
74793;SDS011;63320;50.768;6.724;2023-04-07T11:54:50;32.15;;;16.90;;
74793;SDS011;63320;50.768;6.724;2023-04-07T11:57:24;34.50;;;20.98;;
74793;SDS011;63320;50.768;6.724;2023-04-07T12:00:03;29.98;;;16.70;;
74793;SDS011;63320;50.768;6.724;2023-04-07T12:02:30;48.97;;;24.08;;
74793;SDS011;63320;50.768;6.724;2023-04-07T12:04:55;35.13;;;19.58;;
74793;SDS011;63320;50.768;6.724;2023-04-07T12:07:20;34.85;;;18.90;;
74793;SDS011;63320;50.768;6.724;2023-04-07T12:09:47;49.35;;;25.15;;
74793;SDS011;63320;50.768;6.724;2023-04-07T12:12:12;72.57;;;32.17;;
74793;SDS011;63320;50.768;6.724;2023-04-07T12:14:38;58.03;;;23.40;;
74793;SDS011;63320;50.768;6.724;2023-04-07T12:17:03;43.95;;;19.88;;
74793;SDS011;63320;50.768;6.724;2023-04-07T12:19:29;44.45;;;21.00;;
74793;SDS011;63320;50.768;6.724;2023-04-07T12:21:56;49.97;;;23.65;;
74793;SDS011;63320;50.768;6.724;2023-04-07T12:24:21;28.38;;;15.75;;
74793;SDS011;63320;50.768;6.724;2023-04-07T12:26:48;36.53;;;21.55;;
74793;SDS011;63320;50.768;6.724;2023-04-07T12:29:14;24.48;;;14.68;;
74793;SDS011;63320;50.768;6.724;2023-04-07T12:31:41;25.88;;;15.93;;
74793;SDS011;63320;50.768;6.724;2023-04-07T12:34:06;25.08;;;14.50;;
74793;SDS011;63320;50.768;6.724;2023-04-07T12:36:31;31.85;;;17.65;;
74793;SDS011;63320;50.768;6.724;2023-04-07T12:38:57;28.30;;;14.98;;
74793;SDS011;63320;50.768;6.724;2023-04-07T12:41:22;21.70;;;12.05;;
74793;SDS011;63320;50.768;6.724;2023-04-07T12:43:50;23.70;;;14.80;;
74793;SDS011;63320;50.768;6.724;2023-04-07T12:46:15;23.77;;;12.00;;
74793;SDS011;63320;50.768;6.724;2023-04-07T12:48:40;19.20;;;10.95;;
74793;SDS011;63320;50.768;6.724;2023-04-07T12:51:06;21.90;;;13.63;;
74793;SDS011;63320;50.768;6.724;2023-04-07T12:53:31;23.92;;;13.60;;
74793;SDS011;63320;50.768;6.724;2023-04-07T12:55:57;175.20;;;94.00;;
74793;SDS011;63320;50.768;6.724;2023-04-07T12:58:23;207.57;;;110.28;;
74793;SDS011;63320;50.768;6.724;2023-04-07T13:00:50;147.93;;;79.20;;
74793;SDS011;63320;50.768;6.724;2023-04-07T13:03:15;70.40;;;38.58;;
74793;SDS011;63320;50.768;6.724;2023-04-07T13:05:40;84.10;;;40.30;;
74793;SDS011;63320;50.768;6.724;2023-04-07T13:08:06;48.40;;;25.85;;
74793;SDS011;63320;50.768;6.724;2023-04-07T13:10:31;31.92;;;17.77;;
74793;SDS011;63320;50.768;6.724;2023-04-07T13:12:56;32.17;;;19.75;;
74793;SDS011;63320;50.768;6.724;2023-04-07T13:15:22;35.13;;;19.15;;
74793;SDS011;63320;50.768;6.724;2023-04-07T13:17:49;36.20;;;23.23;;
74793;SDS011;63320;50.768;6.724;2023-04-07T13:20:14;32.78;;;20.05;;
74793;SDS011;63320;50.768;6.724;2023-04-07T13:22:39;25.60;;;16.05;;
74793;SDS011;63320;50.768;6.724;2023-04-07T13:25:05;26.75;;;16.00;;
74793;SDS011;63320;50.768;6.724;2023-04-07T13:27:31;21.45;;;12.85;;
74793;SDS011;63320;50.768;6.724;2023-04-07T13:29:56;21.52;;;11.73;;
74793;SDS011;63320;50.768;6.724;2023-04-07T13:32:21;24.02;;;12.23;;
74793;SDS011;63320;50.768;6.724;2023-04-07T13:34:48;20.52;;;11.05;;
74793;SDS011;63320;50.768;6.724;2023-04-07T13:37:13;19.23;;;11.35;;
74793;SDS011;63320;50.768;6.724;2023-04-07T13:39:39;20.30;;;10.77;;
74793;SDS011;63320;50.768;6.724;2023-04-07T13:42:04;20.50;;;11.30;;
74793;SDS011;63320;50.768;6.724;2023-04-07T13:44:29;23.95;;;12.77;;
74793;SDS011;63320;50.768;6.724;2023-04-07T13:46:55;20.45;;;11.30;;
74793;SDS011;63320;50.768;6.724;2023-04-07T13:49:21;19.20;;;9.52;;
74793;SDS011;63320;50.768;6.724;2023-04-07T13:51:47;18.80;;;10.48;;
74793;SDS011;63320;50.768;6.724;2023-04-07T13:54:13;21.70;;;11.55;;
74793;SDS011;63320;50.768;6.724;2023-04-07T13:56:38;19.73;;;10.63;;
74793;SDS011;63320;50.768;6.724;2023-04-07T13:59:04;23.55;;;12.40;;
74793;SDS011;63320;50.768;6.724;2023-04-07T14:01:29;23.20;;;11.32;;
74793;SDS011;63320;50.768;6.724;2023-04-07T14:03:55;15.15;;;10.05;;
74793;SDS011;63320;50.768;6.724;2023-04-07T14:06:20;18.33;;;10.10;;
74793;SDS011;63320;50.768;6.724;2023-04-07T14:08:47;19.83;;;10.25;;
74793;SDS011;63320;50.768;6.724;2023-04-07T14:11:15;12.85;;;7.60;;
74793;SDS011;63320;50.768;6.724;2023-04-07T14:13:40;11.63;;;7.38;;
74793;SDS011;63320;50.768;6.724;2023-04-07T14:16:06;14.70;;;8.02;;
74793;SDS011;63320;50.768;6.724;2023-04-07T14:18:31;13.75;;;7.22;;
74793;SDS011;63320;50.768;6.724;2023-04-07T14:20:56;11.00;;;6.15;;
74793;SDS011;63320;50.768;6.724;2023-04-07T14:23:22;12.98;;;6.25;;
74793;SDS011;63320;50.768;6.724;2023-04-07T14:25:48;10.05;;;6.15;;
74793;SDS011;63320;50.768;6.724;2023-04-07T14:28:14;11.20;;;6.38;;
74793;SDS011;63320;50.768;6.724;2023-04-07T14:30:39;12.60;;;7.22;;
74793;SDS011;63320;50.768;6.724;2023-04-07T14:33:04;15.43;;;8.25;;